Time;durP1;ratioP1;P1;durP2;ratioP2;P2;SDS_P1;SDS_P2;PMS_P1;PMS_P2;Temp;Humidity;BMP_temperature;BMP_pressure;BME280_temperature;BME280_humidity;BME280_pressure;Samples;Min_cycle;Max_cycle;Signal;HPM_P1;HPM_P2
2022/11/28 00:02:06;;;;;;;9.70;4.70;;;8.80;99.90;;;;;;5030434;28;20025;-58
2022/11/28 00:04:32;;;;;;;13.43;4.32;;;8.80;99.90;;;;;;5030701;28;20140;-58
2022/11/28 00:06:57;;;;;;;10.27;4.78;;;8.80;99.90;;;;;;5030604;28;20029;-58
2022/11/28 00:09:24;;;;;;;12.48;4.82;;;8.80;99.90;;;;;;5030641;28;20029;-58
2022/11/28 00:11:50;;;;;;;10.57;4.95;;;8.70;99.90;;;;;;5030665;28;20511;-61
2022/11/28 00:14:17;;;;;;;11.82;4.72;;;8.70;99.90;;;;;;5030660;28;20530;-58
2022/11/28 00:16:43;;;;;;;14.27;4.70;;;8.70;99.90;;;;;;5030861;28;20021;-58
2022/11/28 00:19:10;;;;;;;10.00;4.57;;;8.70;99.90;;;;;;5030789;28;20025;-58
2022/11/28 00:21:36;;;;;;;16.83;5.18;;;8.60;99.90;;;;;;5030419;28;20077;-59
2022/11/28 00:24:03;;;;;;;10.50;4.88;;;8.60;99.90;;;;;;5030817;28;20033;-58
2022/11/28 00:26:32;;;;;;;19.00;5.35;;;8.60;99.90;;;;;;5030388;28;20560;-58
2022/11/28 00:28:58;;;;;;;13.25;5.32;;;8.60;99.90;;;;;;5030152;28;20056;-59
2022/11/28 00:31:27;;;;;;;16.48;5.35;;;8.60;99.90;;;;;;5030615;28;20076;-58
2022/11/28 00:33:52;;;;;;;10.93;4.57;;;8.60;99.90;;;;;;5030646;28;20026;-58
2022/11/28 00:36:19;;;;;;;12.57;4.03;;;8.60;99.90;;;;;;5030261;28;20397;-58
2022/11/28 00:38:45;;;;;;;10.77;4.47;;;8.60;99.90;;;;;;5030536;28;20092;-58
2022/11/28 00:41:14;;;;;;;12.35;4.45;;;8.50;99.90;;;;;;5030681;28;20112;-59
2022/11/28 00:43:41;;;;;;;14.48;5.28;;;8.40;99.90;;;;;;5030654;28;20113;-58
2022/11/28 00:46:08;;;;;;;13.00;4.53;;;8.40;99.90;;;;;;5030531;28;20044;-61
2022/11/28 00:48:34;;;;;;;13.68;4.57;;;8.40;99.90;;;;;;5030532;28;20088;-58
2022/11/28 00:51:06;;;;;;;6.88;3.47;;;8.40;99.90;;;;;;5029787;28;20108;-59
2022/11/28 00:53:32;;;;;;;18.83;3.90;;;8.30;99.90;;;;;;5025363;28;20517;-58
2022/11/28 00:55:57;;;;;;;5.35;3.10;;;8.30;99.90;;;;;;5030421;28;20044;-58
2022/11/28 00:58:23;;;;;;;7.50;2.97;;;8.20;99.90;;;;;;5030818;28;20092;-58
2022/11/28 01:00:48;;;;;;;9.13;3.15;;;8.10;99.90;;;;;;5030551;28;20431;-58
2022/11/28 01:03:14;;;;;;;5.22;2.72;;;8.00;99.90;;;;;;5030565;28;20054;-58
2022/11/28 01:05:42;;;;;;;18.52;3.83;;;7.90;99.90;;;;;;5029080;28;20029;-58
2022/11/28 01:08:08;;;;;;;5.97;2.63;;;7.90;99.90;;;;;;5030461;28;20022;-57
2022/11/28 01:10:37;;;;;;;18.70;2.88;;;7.70;99.90;;;;;;5030305;28;20022;-58
2022/11/28 01:13:03;;;;;;;12.27;1.88;;;7.70;99.90;;;;;;5030548;28;20018;-59
2022/11/28 01:15:28;;;;;;;3.05;1.80;;;7.60;99.90;;;;;;5030253;28;20642;-57
2022/11/28 01:17:54;;;;;;;8.65;1.98;;;7.50;99.90;;;;;;5030164;28;20025;-58
2022/11/28 01:20:19;;;;;;;4.70;2.05;;;7.50;99.90;;;;;;5029872;28;20029;-58
2022/11/28 01:22:45;;;;;;;7.50;2.00;;;7.50;99.90;;;;;;5029964;28;20049;-57
2022/11/28 01:25:10;;;;;;;4.50;1.95;;;7.40;99.90;;;;;;5029726;28;20032;-58
2022/11/28 01:27:36;;;;;;;5.22;2.20;;;7.40;99.90;;;;;;5029477;28;20028;-58
2022/11/28 01:30:02;;;;;;;6.80;2.78;;;7.40;99.90;;;;;;5029712;28;20060;-60
2022/11/28 01:32:28;;;;;;;8.98;2.95;;;7.40;99.90;;;;;;5030156;28;20037;-59
2022/11/28 01:34:53;;;;;;;8.35;3.50;;;7.40;99.90;;;;;;5029812;28;20033;-58
2022/11/28 01:37:19;;;;;;;6.35;3.10;;;7.30;99.90;;;;;;5028737;28;20037;-58
2022/11/28 01:39:44;;;;;;;10.35;3.30;;;7.30;99.90;;;;;;5030387;28;20025;-57
2022/11/28 01:42:18;;;;;;;7.63;3.25;;;7.30;99.90;;;;;;5033422;28;20519;-59
2022/11/28 01:44:46;;;;;;;9.40;3.50;;;7.30;99.90;;;;;;5033544;28;20025;-58
2022/11/28 01:47:13;;;;;;;9.13;3.75;;;7.30;99.90;;;;;;5033349;28;20084;-59
2022/11/28 01:49:40;;;;;;;5.15;3.00;;;7.30;99.90;;;;;;5033446;28;20436;-59
2022/11/28 01:52:11;;;;;;;9.02;3.47;;;7.40;99.90;;;;;;5032838;28;20547;-59
2022/11/28 01:54:38;;;;;;;7.00;2.75;;;7.40;99.90;;;;;;5033213;28;20092;-58
2022/11/28 01:57:14;;;;;;;7.70;2.80;;;7.30;99.90;;;;;;5032912;28;20013;-61
2022/11/28 01:59:47;;;;;;;3.50;2.22;;;7.20;99.90;;;;;;5033162;28;20025;-58
2022/11/28 02:02:21;;;;;;;4.53;2.33;;;7.10;99.90;;;;;;5033035;28;20436;-58
2022/11/28 02:04:49;;;;;;;4.30;2.08;;;7.00;99.90;;;;;;5033118;28;20045;-59
2022/11/28 02:07:15;;;;;;;5.30;2.10;;;6.90;99.90;;;;;;5032746;28;20476;-59
2022/11/28 02:09:40;;;;;;;8.13;2.42;;;6.90;99.90;;;;;;5032999;28;20083;-58
2022/11/28 02:12:31;;;;;;;50.45;3.45;;;6.80;99.90;;;;;;5032856;28;20071;-58
2022/11/28 02:15:16;;;;;;;9.63;2.50;;;6.70;99.90;;;;;;5032660;28;20033;-59
2022/11/28 02:18:06;;;;;;;11.98;2.22;;;6.70;99.90;;;;;;5033000;28;20067;-58
2022/11/28 02:20:46;;;;;;;4.57;2.60;;;6.70;99.90;;;;;;5033169;28;20453;-57
2022/11/28 02:23:29;;;;;;;5.45;2.30;;;6.70;99.90;;;;;;5032666;28;20392;-59
2022/11/28 02:26:16;;;;;;;5.82;2.38;;;6.70;99.90;;;;;;5032600;28;20026;-57
2022/11/28 02:28:48;;;;;;;4.25;2.65;;;6.70;99.90;;;;;;5027450;28;20021;-58
2022/11/28 02:31:57;;;;;;;6.72;2.33;;;6.80;99.90;;;;;;5032278;28;20026;-61
2022/11/28 02:35:17;;;;;;;17.05;2.83;;;6.80;99.90;;;;;;5023699;28;20065;-60
2022/11/28 02:38:10;;;;;;;7.68;2.58;;;7.00;99.90;;;;;;5000541;28;20033;-60
2022/11/28 02:40:48;;;;;;;12.15;2.63;;;7.10;99.90;;;;;;5031917;28;20485;-58
2022/11/28 02:43:48;;;;;;;4.97;2.42;;;7.10;99.90;;;;;;5032345;28;20670;-58
2022/11/28 02:46:56;;;;;;;4.93;2.00;;;7.00;99.90;;;;;;5011240;28;20061;-58
2022/11/28 02:49:49;;;;;;;8.52;3.05;;;6.90;99.90;;;;;;5032273;28;20033;-59
2022/11/28 02:52:21;;;;;;;6.55;2.40;;;6.90;99.90;;;;;;5014284;28;20030;-60
2022/11/28 02:54:48;;;;;;;7.80;2.38;;;6.80;99.90;;;;;;5032033;28;20112;-58
2022/11/28 02:57:14;;;;;;;5.60;2.42;;;6.70;99.90;;;;;;5031670;28;20033;-58
2022/11/28 02:59:40;;;;;;;11.55;2.45;;;6.80;99.90;;;;;;5032171;28;20017;-58
2022/11/28 03:02:19;;;;;;;4.97;2.42;;;6.80;99.90;;;;;;5031907;28;20117;-58
2022/11/28 03:04:51;;;;;;;4.97;2.30;;;6.80;99.90;;;;;;5031853;28;20128;-57
2022/11/28 03:07:37;;;;;;;6.43;2.40;;;6.90;99.90;;;;;;5031500;28;20497;-59
2022/11/28 03:10:20;;;;;;;6.00;2.70;;;7.00;99.90;;;;;;5032055;28;20040;-59
2022/11/28 03:12:54;;;;;;;5.63;2.55;;;7.00;99.90;;;;;;5030124;28;20067;-60
2022/11/28 03:15:25;;;;;;;5.80;2.55;;;7.10;99.90;;;;;;5031628;28;20098;-58
2022/11/28 03:18:09;;;;;;;6.45;2.33;;;7.20;99.90;;;;;;5031438;28;20051;-59
2022/11/28 03:20:53;;;;;;;14.02;2.90;;;7.20;99.90;;;;;;5031604;28;20029;-60
2022/11/28 03:23:36;;;;;;;12.75;3.08;;;7.40;99.90;;;;;;5031706;28;20048;-58
2022/11/28 03:26:15;;;;;;;8.50;2.47;;;7.50;99.90;;;;;;5031126;28;20040;-58
2022/11/28 03:29:10;;;;;;;16.85;3.13;;;7.60;99.90;;;;;;5031247;28;20041;-59
2022/11/28 03:31:40;;;;;;;6.95;1.98;;;7.60;99.90;;;;;;5030504;28;20056;-58
2022/11/28 03:34:11;;;;;;;9.82;2.70;;;7.60;99.90;;;;;;5031445;28;20021;-60
2022/11/28 03:36:55;;;;;;;11.43;2.78;;;7.50;99.90;;;;;;5031085;28;20087;-60
2022/11/28 03:39:26;;;;;;;7.10;2.08;;;7.40;99.90;;;;;;5031486;28;20029;-59
2022/11/28 03:42:01;;;;;;;6.82;2.63;;;7.30;99.90;;;;;;5031307;28;20074;-58
2022/11/28 03:44:36;;;;;;;7.03;2.42;;;7.20;99.90;;;;;;5031190;28;20767;-59
2022/11/28 03:47:04;;;;;;;8.07;2.38;;;7.10;99.90;;;;;;5031075;28;20033;-58
2022/11/28 03:49:35;;;;;;;9.23;2.28;;;7.10;99.90;;;;;;5031135;28;20072;-58
2022/11/28 03:52:04;;;;;;;11.60;2.45;;;7.10;99.90;;;;;;5030982;28;20017;-58
2022/11/28 03:54:53;;;;;;;11.32;2.22;;;7.10;99.90;;;;;;5031145;28;20037;-58
2022/11/28 03:57:24;;;;;;;9.82;2.85;;;7.20;99.90;;;;;;5030808;28;20075;-58
2022/11/28 03:59:52;;;;;;;12.30;2.38;;;7.30;99.90;;;;;;5031007;28;20030;-57
2022/11/28 04:02:36;;;;;;;19.10;3.42;;;7.40;99.90;;;;;;5016582;28;20562;-59
2022/11/28 04:05:22;;;;;;;10.80;2.70;;;7.40;99.90;;;;;;5030817;28;20404;-57
2022/11/28 04:08:04;;;;;;;11.85;2.50;;;7.40;99.90;;;;;;5030746;28;20029;-58
2022/11/28 04:10:40;;;;;;;5.35;2.20;;;7.40;99.90;;;;;;5030716;28;20028;-58
2022/11/28 04:13:32;;;;;;;10.48;2.08;;;7.30;99.90;;;;;;5030864;28;20025;-58
2022/11/28 04:16:03;;;;;;;9.45;2.30;;;7.20;99.90;;;;;;5030501;28;20038;-59
2022/11/28 04:18:57;;;;;;;8.73;1.95;;;7.10;99.90;;;;;;5030958;28;20025;-58
2022/11/28 04:21:53;;;;;;;5.88;2.10;;;6.90;99.90;;;;;;5020054;28;20041;-59
2022/11/28 04:24:31;;;;;;;8.25;2.42;;;6.80;99.90;;;;;;5030539;28;20026;-60
2022/11/28 04:27:07;;;;;;;9.55;1.90;;;6.70;99.90;;;;;;5030142;28;20022;-58
2022/11/28 04:29:42;;;;;;;8.15;2.13;;;6.60;99.90;;;;;;5030228;28;20449;-58
2022/11/28 04:32:09;;;;;;;14.48;2.97;;;6.50;99.90;;;;;;5030710;28;20087;-59
2022/11/28 04:34:37;;;;;;;9.82;2.22;;;6.60;99.90;;;;;;5030342;28;20167;-59
2022/11/28 04:37:05;;;;;;;8.10;2.17;;;6.50;99.90;;;;;;5030217;28;20038;-58
2022/11/28 04:39:33;;;;;;;10.23;2.30;;;6.50;99.90;;;;;;5030424;28;20101;-60
2022/11/28 04:42:22;;;;;;;12.10;2.30;;;6.50;99.90;;;;;;5030572;28;20492;-59
2022/11/28 04:45:00;;;;;;;14.52;3.22;;;6.40;99.90;;;;;;5030334;28;20053;-58
2022/11/28 04:47:26;;;;;;;12.50;2.88;;;6.50;99.90;;;;;;5030487;28;20021;-60
2022/11/28 04:49:53;;;;;;;14.20;2.85;;;6.50;99.90;;;;;;5030262;28;20078;-60
2022/11/28 04:52:54;;;;;;;17.00;3.35;;;6.50;99.90;;;;;;5030409;28;20026;-61
2022/11/28 04:55:32;;;;;;;10.50;2.33;;;6.50;99.90;;;;;;5005260;28;20079;-61
2022/11/28 04:58:09;;;;;;;12.35;2.50;;;6.40;99.90;;;;;;5030040;28;20045;-60
2022/11/28 05:00:36;;;;;;;7.20;2.80;;;6.30;99.90;;;;;;5030368;28;20026;-59
2022/11/28 05:03:04;;;;;;;9.65;2.72;;;6.30;99.90;;;;;;5030143;28;20037;-60
2022/11/28 05:05:30;;;;;;;13.65;2.95;;;6.30;99.90;;;;;;5030415;28;20071;-60
2022/11/28 05:07:57;;;;;;;5.88;2.28;;;6.20;99.90;;;;;;5030201;28;20026;-60
2022/11/28 05:10:23;;;;;;;6.30;2.20;;;6.30;99.90;;;;;;5030202;28;20169;-60
2022/11/28 05:12:49;;;;;;;11.40;2.65;;;6.30;99.90;;;;;;5030563;28;20492;-60
2022/11/28 05:15:18;;;;;;;3.88;2.00;;;6.30;99.90;;;;;;5032913;28;20396;-60
2022/11/28 05:17:45;;;;;;;10.18;2.50;;;6.30;99.90;;;;;;5034063;28;20029;-59
2022/11/28 05:20:12;;;;;;;6.97;2.35;;;6.20;99.90;;;;;;5032624;28;20087;-60
2022/11/28 05:22:37;;;;;;;6.80;2.30;;;6.20;99.90;;;;;;5033617;28;20088;-59
2022/11/28 05:25:04;;;;;;;10.38;2.50;;;6.20;99.90;;;;;;5033923;28;20108;-59
2022/11/28 05:27:29;;;;;;;5.97;2.40;;;6.20;99.90;;;;;;5032980;28;20126;-59
2022/11/28 05:29:55;;;;;;;6.22;2.10;;;6.10;99.90;;;;;;5033364;28;20408;-60
2022/11/28 05:32:20;;;;;;;8.38;2.40;;;6.10;99.90;;;;;;5034042;28;20025;-60
2022/11/28 05:34:46;;;;;;;8.13;2.30;;;6.00;99.90;;;;;;5033628;28;20075;-60
2022/11/28 05:37:12;;;;;;;6.63;2.92;;;6.00;99.90;;;;;;5033359;28;20029;-60
2022/11/28 05:39:38;;;;;;;11.25;2.63;;;6.00;99.90;;;;;;5033708;28;20017;-59
2022/11/28 05:42:03;;;;;;;11.40;2.53;;;6.10;99.90;;;;;;5033601;28;20029;-59
2022/11/28 05:44:29;;;;;;;11.82;2.60;;;6.00;99.90;;;;;;5033571;28;20021;-60
2022/11/28 05:46:55;;;;;;;15.43;3.00;;;5.90;99.90;;;;;;5033500;28;20373;-60
2022/11/28 05:49:20;;;;;;;9.05;2.72;;;5.90;99.90;;;;;;5033400;28;20025;-59
2022/11/28 05:51:47;;;;;;;15.35;2.70;;;5.80;99.90;;;;;;5033215;28;20022;-59
2022/11/28 05:54:13;;;;;;;10.75;2.90;;;5.70;99.90;;;;;;5033246;28;20417;-59
2022/11/28 05:56:39;;;;;;;17.75;3.08;;;5.70;99.90;;;;;;5033151;28;20044;-60
2022/11/28 05:59:04;;;;;;;11.52;3.38;;;5.70;99.90;;;;;;5032905;28;20033;-59
2022/11/28 06:01:30;;;;;;;7.47;2.97;;;5.80;99.90;;;;;;5033030;28;20650;-59
2022/11/28 06:03:59;;;;;;;9.18;2.88;;;5.90;99.90;;;;;;5032990;28;20056;-59
2022/11/28 06:06:30;;;;;;;8.00;2.83;;;6.00;99.90;;;;;;5032737;28;20036;-59
2022/11/28 06:08:56;;;;;;;6.10;2.60;;;6.00;99.90;;;;;;5033111;28;20053;-60
2022/11/28 06:11:24;;;;;;;11.55;2.55;;;6.10;99.90;;;;;;5033195;28;20032;-59
2022/11/28 06:13:50;;;;;;;13.82;2.63;;;6.30;99.90;;;;;;5032873;28;20407;-59
2022/11/28 06:16:21;;;;;;;9.68;2.80;;;6.50;99.90;;;;;;5032793;28;20037;-59
2022/11/28 06:18:50;;;;;;;11.70;3.08;;;6.70;99.90;;;;;;5032728;28;20541;-59
2022/11/28 06:21:16;;;;;;;12.88;2.90;;;6.80;99.90;;;;;;5032790;28;20037;-60
2022/11/28 06:23:42;;;;;;;12.02;2.92;;;6.70;99.90;;;;;;5032858;28;20021;-60
2022/11/28 06:26:10;;;;;;;8.63;2.38;;;6.50;99.90;;;;;;5031438;28;20029;-58
2022/11/28 06:28:36;;;;;;;7.68;2.35;;;6.40;99.90;;;;;;5032792;28;20025;-59
2022/11/28 06:31:03;;;;;;;8.00;2.35;;;6.20;99.90;;;;;;5032536;28;20112;-60
2022/11/28 06:33:29;;;;;;;7.07;2.30;;;6.20;99.90;;;;;;5032369;28;20034;-59
2022/11/28 06:36:02;;;;;;;6.57;2.25;;;6.10;99.90;;;;;;5032186;28;20121;-59
2022/11/28 06:38:29;;;;;;;8.73;2.60;;;6.00;99.90;;;;;;5031562;28;20037;-59
2022/11/28 06:40:59;;;;;;;11.63;3.08;;;6.00;99.90;;;;;;5032589;28;20037;-60
2022/11/28 06:43:25;;;;;;;13.20;3.13;;;6.00;99.90;;;;;;5032452;28;20013;-59
2022/11/28 06:45:51;;;;;;;8.75;2.40;;;6.10;99.90;;;;;;5032329;28;20546;-59
2022/11/28 06:48:17;;;;;;;6.97;2.45;;;6.10;99.90;;;;;;5032262;28;20022;-60
2022/11/28 06:50:42;;;;;;;8.77;2.85;;;6.00;99.90;;;;;;5032477;28;20029;-59
2022/11/28 06:53:08;;;;;;;9.35;2.50;;;6.00;99.90;;;;;;5030961;28;20488;-59
2022/11/28 06:55:33;;;;;;;10.38;2.90;;;5.90;99.90;;;;;;5031974;28;20040;-60
2022/11/28 06:57:59;;;;;;;12.85;3.15;;;5.90;99.90;;;;;;5031722;28;20029;-58
2022/11/28 07:00:25;;;;;;;8.88;2.80;;;5.90;99.90;;;;;;5032083;28;20057;-58
2022/11/28 07:02:50;;;;;;;7.85;2.25;;;5.80;99.90;;;;;;5031806;28;20387;-58
2022/11/28 07:05:16;;;;;;;9.43;2.15;;;5.70;99.90;;;;;;5031822;28;20029;-58
2022/11/28 07:07:42;;;;;;;6.15;1.83;;;5.70;99.90;;;;;;5031921;28;20025;-59
2022/11/28 07:10:08;;;;;;;7.97;2.00;;;5.70;99.90;;;;;;5031624;28;20423;-59
2022/11/28 07:12:34;;;;;;;11.38;2.20;;;5.60;99.90;;;;;;5031697;28;20022;-59
2022/11/28 07:14:59;;;;;;;11.52;1.80;;;5.60;99.90;;;;;;5031546;28;20029;-59
2022/11/28 07:17:25;;;;;;;10.25;1.95;;;5.70;99.90;;;;;;5031871;28;20018;-58
2022/11/28 07:19:51;;;;;;;8.68;2.20;;;5.60;99.90;;;;;;5031542;28;20042;-60
2022/11/28 07:22:16;;;;;;;6.57;1.95;;;5.70;99.90;;;;;;5031395;28;20113;-61
2022/11/28 07:24:42;;;;;;;4.63;1.42;;;5.70;99.90;;;;;;5031581;28;20393;-59
2022/11/28 07:27:07;;;;;;;9.63;2.00;;;5.70;99.90;;;;;;5031038;28;20049;-59
2022/11/28 07:29:36;;;;;;;11.00;1.90;;;5.70;99.90;;;;;;5031292;28;20099;-59
2022/11/28 07:32:04;;;;;;;11.30;2.28;;;5.70;99.90;;;;;;5030590;28;20048;-59
2022/11/28 07:34:30;;;;;;;9.38;2.22;;;5.70;99.90;;;;;;5029762;28;20026;-60
2022/11/28 07:36:55;;;;;;;11.20;2.30;;;5.80;99.90;;;;;;5029335;28;20033;-60
2022/11/28 07:39:21;;;;;;;8.80;2.35;;;5.80;99.90;;;;;;5031011;28;20017;-60
2022/11/28 07:41:47;;;;;;;5.72;2.20;;;5.70;99.90;;;;;;5030797;28;20056;-60
2022/11/28 07:44:16;;;;;;;17.27;2.55;;;5.70;99.90;;;;;;5031435;28;20018;-59
2022/11/28 07:46:43;;;;;;;34.35;3.78;;;5.70;99.90;;;;;;5029033;28;20017;-59
2022/11/28 07:49:09;;;;;;;13.55;3.17;;;5.70;99.90;;;;;;5030236;28;20073;-59
2022/11/28 07:51:34;;;;;;;11.18;2.40;;;5.70;99.90;;;;;;5030364;28;20421;-61
2022/11/28 07:54:01;;;;;;;10.05;2.75;;;5.60;99.90;;;;;;5030818;28;20025;-60
2022/11/28 07:56:30;;;;;;;11.18;3.75;;;5.60;99.90;;;;;;5030808;28;20033;-59
2022/11/28 07:58:56;;;;;;;10.40;3.53;;;5.80;99.90;;;;;;5026628;28;20143;-59
2022/11/28 08:01:24;;;;;;;17.40;3.20;;;5.70;99.90;;;;;;5028059;28;20033;-59
2022/11/28 08:03:51;;;;;;;17.95;3.38;;;6.00;99.90;;;;;;5030037;28;20049;-59
2022/11/28 08:06:19;;;;;;;18.27;3.20;;;6.20;99.90;;;;;;5030075;28;20025;-60
2022/11/28 08:08:47;;;;;;;27.60;4.20;;;6.40;99.90;;;;;;5027368;28;20091;-60
2022/11/28 08:11:13;;;;;;;42.45;4.18;;;6.50;99.90;;;;;;5030107;28;20092;-59
2022/11/28 08:13:39;;;;;;;9.82;3.08;;;6.30;99.90;;;;;;5030277;28;20041;-61
2022/11/28 08:16:07;;;;;;;8.57;2.42;;;6.30;99.90;;;;;;5027756;28;20419;-60
2022/11/28 08:18:34;;;;;;;14.93;2.33;;;6.40;99.90;;;;;;5029944;28;20091;-60
2022/11/28 08:21:12;;;;;;;10.43;2.05;;;6.60;99.90;;;;;;5029825;28;20500;-58
2022/11/28 08:23:39;;;;;;;8.35;2.00;;;6.90;99.90;;;;;;5029163;28;20036;-60
2022/11/28 08:26:07;;;;;;;14.45;2.70;;;7.30;99.90;;;;;;5029711;28;20036;-61
2022/11/28 08:28:33;;;;;;;8.02;1.77;;;7.60;99.90;;;;;;5028740;28;20021;-62
2022/11/28 08:31:00;;;;;;;9.00;1.63;;;7.80;99.90;;;;;;5028188;28;20120;-60
2022/11/28 08:33:26;;;;;;;8.60;1.98;;;8.00;99.90;;;;;;5026877;28;20091;-60
2022/11/28 08:35:55;;;;;;;14.25;2.40;;;8.20;99.90;;;;;;5025999;28;20041;-59
2022/11/28 08:38:21;;;;;;;9.15;2.60;;;8.70;99.90;;;;;;5027887;28;20049;-60
2022/11/28 08:40:46;;;;;;;10.05;2.45;;;9.40;99.90;;;;;;5027866;28;20068;-61
2022/11/28 08:43:13;;;;;;;8.88;2.15;;;10.70;99.90;;;;;;5026989;28;20531;-59
2022/11/28 08:45:39;;;;;;;5.95;2.25;;;12.00;99.90;;;;;;5027299;28;20546;-59
2022/11/28 08:48:05;;;;;;;6.93;2.30;;;13.20;99.90;;;;;;5027966;28;20136;-59
2022/11/28 08:50:30;;;;;;;5.40;1.75;;;14.20;99.90;;;;;;5031865;28;20025;-60
2022/11/28 08:52:56;;;;;;;4.75;1.98;;;14.70;99.90;;;;;;5031740;28;20051;-59
2022/11/28 08:55:22;;;;;;;6.85;3.80;;;14.30;99.90;;;;;;5033326;28;20045;-59
2022/11/28 08:57:50;;;;;;;8.38;5.25;;;13.50;99.90;;;;;;5032392;28;20502;-59
2022/11/28 09:00:16;;;;;;;8.53;3.73;;;12.80;99.90;;;;;;5028791;28;20018;-59
2022/11/28 09:02:42;;;;;;;5.90;2.20;;;12.20;99.90;;;;;;5029760;28;20780;-60
2022/11/28 09:05:08;;;;;;;4.78;1.63;;;11.70;99.90;;;;;;5033379;28;20026;-58
2022/11/28 09:07:33;;;;;;;6.50;1.48;;;11.20;99.90;;;;;;5033682;28;20036;-59
2022/11/28 09:09:59;;;;;;;7.18;1.52;;;10.90;99.90;;;;;;5033810;28;20021;-61
2022/11/28 09:12:25;;;;;;;5.00;1.58;;;10.70;99.90;;;;;;5034212;28;20392;-58
2022/11/28 09:14:50;;;;;;;4.95;1.50;;;10.40;99.90;;;;;;5032489;28;20048;-59
2022/11/28 09:17:16;;;;;;;8.85;2.72;;;10.20;99.90;;;;;;5029697;28;20144;-60
2022/11/28 09:19:42;;;;;;;7.70;1.77;;;10.10;99.90;;;;;;5037420;28;20025;-60
2022/11/28 09:22:07;;;;;;;8.57;1.50;;;10.10;99.90;;;;;;5049064;28;20029;-59
2022/11/28 09:24:33;;;;;;;7.22;1.80;;;10.00;99.90;;;;;;5033059;28;20018;-60
2022/11/28 09:26:58;;;;;;;8.23;1.90;;;10.00;99.90;;;;;;5029727;28;20025;-62
2022/11/28 09:29:25;;;;;;;5.85;1.73;;;10.00;99.90;;;;;;5035985;28;20029;-61
2022/11/28 09:31:51;;;;;;;5.82;1.45;;;10.00;99.90;;;;;;5033527;28;20108;-61
2022/11/28 09:34:16;;;;;;;7.65;1.60;;;10.00;99.90;;;;;;5033597;28;20458;-59
2022/11/28 09:36:42;;;;;;;4.00;1.15;;;10.00;99.90;;;;;;5038374;28;20030;-59
2022/11/28 09:39:08;;;;;;;9.63;2.75;;;10.10;99.90;;;;;;5033636;28;20431;-59
2022/11/28 09:42:04;;;;;;;8.77;1.50;;;10.10;99.90;;;;;;5036883;28;20028;-60
2022/11/28 09:44:47;;;;;;;8.82;1.90;;;10.10;99.90;;;;;;5031769;28;20034;-61
2022/11/28 09:47:27;;;;;;;4.00;1.02;;;10.40;99.90;;;;;;5022365;28;20084;-60
2022/11/28 09:50:01;;;;;;;6.47;0.82;;;11.50;99.90;;;;;;5031803;28;20429;-59
2022/11/28 09:52:45;;;;;;;5.32;1.42;;;13.00;99.90;;;;;;5031593;28;20079;-59
2022/11/28 09:55:43;;;;;;;7.47;1.25;;;15.40;99.90;;;;;;5031409;28;20037;-56
2022/11/28 09:58:21;;;;;;;3.22;0.88;;;16.80;99.90;;;;;;5031103;28;20108;-59
2022/11/28 10:01:00;;;;;;;5.72;0.90;;;16.30;99.90;;;;;;5027705;28;20033;-59
2022/11/28 10:04:04;;;;;;;4.97;0.90;;;15.00;99.90;;;;;;5032876;28;20111;-60
2022/11/28 10:06:39;;;;;;;2.38;0.73;;;13.60;99.90;;;;;;5027749;28;20041;-59
2022/11/28 10:09:21;;;;;;;4.25;0.90;;;12.50;99.90;;;;;;5033030;28;20223;-58
2022/11/28 10:12:17;;;;;;;6.82;1.17;;;11.60;99.90;;;;;;5033102;28;20036;-58
2022/11/28 10:14:56;;;;;;;4.07;0.98;;;11.00;99.90;;;;;;5029323;28;20032;-60
2022/11/28 10:17:59;;;;;;;2.80;1.00;;;10.60;99.90;;;;;;5033171;28;20463;-60
2022/11/28 10:20:31;;;;;;;5.78;1.00;;;10.30;99.90;;;;;;5025533;28;20030;-60
2022/11/28 10:23:20;;;;;;;3.83;1.20;;;10.10;99.90;;;;;;5026469;28;20496;-59
2022/11/28 10:26:12;;;;;;;4.85;1.23;;;10.00;99.90;;;;;;5030724;28;20037;-61
2022/11/28 10:28:41;;;;;;;6.13;1.05;;;10.00;99.90;;;;;;5024479;28;20026;-61
2022/11/28 10:31:20;;;;;;;7.70;1.00;;;10.10;99.90;;;;;;5044400;28;20075;-58
2022/11/28 10:34:12;;;;;;;4.55;1.15;;;10.20;99.90;;;;;;5028115;28;20040;-62
2022/11/28 10:36:54;;;;;;;5.20;1.40;;;10.40;99.90;;;;;;5026242;28;20400;-59
2022/11/28 10:39:20;;;;;;;5.30;1.30;;;10.70;99.90;;;;;;5029670;28;20092;-62
2022/11/28 10:42:15;;;;;;;7.13;1.35;;;11.20;99.90;;;;;;5030294;28;20029;-60
2022/11/28 10:45:11;;;;;;;6.88;0.98;;;11.70;99.90;;;;;;5029897;28;20037;-59
2022/11/28 10:48:05;;;;;;;3.85;1.20;;;13.30;99.90;;;;;;5030953;28;20026;-62
2022/11/28 10:50:44;;;;;;;3.35;0.93;;;15.60;99.90;;;;;;5018453;28;20626;-60
2022/11/28 10:53:34;;;;;;;5.28;1.15;;;17.50;99.90;;;;;;5030945;28;20029;-60
2022/11/28 10:56:47;;;;;;;4.32;1.00;;;19.40;99.90;;;;;;5021352;28;20234;-59
2022/11/28 10:59:30;;;;;;;3.70;1.05;;;21.60;97.30;;;;;;4997784;28;20033;-61
2022/11/28 11:01:56;;;;;;;3.53;0.73;;;22.60;94.70;;;;;;5031025;28;20153;-60
2022/11/28 11:04:25;;;;;;;2.70;0.80;;;23.30;90.30;;;;;;5030507;28;20045;-60
2022/11/28 11:07:00;;;;;;;3.85;0.85;;;23.30;89.60;;;;;;5030662;28;20029;-60
2022/11/28 11:09:26;;;;;;;3.70;0.85;;;23.50;87.10;;;;;;5019670;28;20496;-60
2022/11/28 11:11:59;;;;;;;4.47;0.98;;;23.90;85.80;;;;;;5030317;28;20021;-60
2022/11/28 11:14:38;;;;;;;2.53;0.90;;;23.50;84.50;;;;;;5027776;28;20191;-60
2022/11/28 11:17:05;;;;;;;4.55;0.95;;;23.30;83.20;;;;;;5028479;28;20091;-61
2022/11/28 11:19:35;;;;;;;3.63;0.85;;;23.70;83.30;;;;;;5028563;28;20029;-60
2022/11/28 11:22:17;;;;;;;2.78;0.60;;;24.30;80.40;;;;;;5025873;28;20032;-60
2022/11/28 11:24:44;;;;;;;3.30;0.80;;;24.20;77.70;;;;;;5027447;28;20063;-60
2022/11/28 11:27:20;;;;;;;4.18;1.05;;;23.70;78.30;;;;;;5028100;28;20021;-61
2022/11/28 11:29:45;;;;;;;3.25;0.80;;;23.60;78.00;;;;;;5028078;28;20025;-61
2022/11/28 11:32:22;;;;;;;3.15;0.60;;;23.90;76.30;;;;;;5028368;28;20109;-60
2022/11/28 11:34:51;;;;;;;3.20;0.70;;;23.80;77.70;;;;;;5029123;28;20032;-61
2022/11/28 11:37:19;;;;;;;3.30;0.70;;;23.90;76.90;;;;;;5030408;28;20025;-60
2022/11/28 11:39:50;;;;;;;3.58;0.73;;;24.20;75.20;;;;;;5030360;28;20025;-60
2022/11/28 11:42:22;;;;;;;3.05;0.80;;;24.40;73.50;;;;;;5025779;28;20392;-62
2022/11/28 11:44:47;;;;;;;4.82;0.75;;;23.30;73.80;;;;;;5030317;28;20040;-62
2022/11/28 11:47:13;;;;;;;3.25;0.82;;;22.50;79.30;;;;;;5030716;28;20072;-70
2022/11/28 11:49:40;;;;;;;2.25;0.70;;;22.00;79.10;;;;;;5030057;28;20075;-59
2022/11/28 11:52:11;;;;;;;3.72;0.50;;;22.00;81.30;;;;;;5029990;28;20099;-62
2022/11/28 11:54:47;;;;;;;3.88;1.20;;;22.10;79.20;;;;;;5029682;28;20030;-61
2022/11/28 11:57:13;;;;;;;2.50;0.60;;;21.50;80.20;;;;;;5029135;28;20167;-60
2022/11/28 11:59:44;;;;;;;3.83;0.65;;;20.30;83.00;;;;;;5030025;28;20025;-61
2022/11/28 12:02:32;;;;;;;3.35;0.60;;;19.40;84.30;;;;;;5028627;28;20035;-61
2022/11/28 12:05:04;;;;;;;4.13;0.73;;;18.00;89.00;;;;;;5030094;28;20099;-64
2022/11/28 12:07:49;;;;;;;2.85;0.52;;;16.70;91.00;;;;;;5029472;28;20033;-62
2022/11/28 12:10:20;;;;;;;3.95;0.70;;;15.60;92.90;;;;;;5029188;28;20033;-60
2022/11/28 12:12:46;;;;;;;4.05;0.77;;;14.60;95.00;;;;;;5030578;28;20025;-61
2022/11/28 12:15:31;;;;;;;4.13;0.65;;;13.90;96.50;;;;;;5030673;28;20388;-61
2022/11/28 12:18:21;;;;;;;4.40;0.80;;;13.40;98.10;;;;;;5029647;28;20064;-60
2022/11/28 12:20:59;;;;;;;7.18;1.02;;;12.90;99.60;;;;;;5023150;28;20481;-59
2022/11/28 12:23:28;;;;;;;2.80;0.55;;;12.60;99.90;;;;;;5030101;28;20077;-62
2022/11/28 12:26:22;;;;;;;4.90;0.75;;;12.30;99.90;;;;;;5025256;28;20103;-67
2022/11/28 12:28:57;;;;;;;6.65;1.05;;;12.10;99.90;;;;;;5022823;28;20025;-64
2022/11/28 12:31:41;;;;;;;4.10;0.75;;;11.90;99.90;;;;;;5026040;28;20075;-62
2022/11/28 12:34:27;;;;;;;3.70;0.63;;;11.90;99.90;;;;;;5028424;28;20021;-62
2022/11/28 12:36:55;;;;;;;4.45;0.70;;;11.90;99.90;;;;;;5028882;28;20041;-63
2022/11/28 12:39:43;;;;;;;4.10;0.80;;;11.90;99.90;;;;;;5026880;28;20048;-61
2022/11/28 12:42:23;;;;;;;1.27;0.43;;;11.90;99.90;;;;;;5024143;28;20341;-63
2022/11/28 12:44:58;;;;;;;6.63;0.85;;;11.90;99.90;;;;;;5028268;28;20044;-62
2022/11/28 12:47:32;;;;;;;4.53;0.70;;;11.80;99.90;;;;;;5029288;28;20021;-64
2022/11/28 12:50:19;;;;;;;3.40;0.60;;;11.70;99.90;;;;;;5028520;28;20021;-62
2022/11/28 12:53:06;;;;;;;1.60;0.40;;;11.70;99.90;;;;;;5028617;28;20029;-62
2022/11/28 12:55:53;;;;;;;5.43;0.65;;;11.70;99.90;;;;;;5028686;28;20033;-62
2022/11/28 12:58:56;;;;;;;4.25;0.70;;;11.60;99.90;;;;;;5026636;28;20041;-63
2022/11/28 13:02:02;;;;;;;4.95;0.63;;;11.60;99.90;;;;;;5024901;28;20029;-63
2022/11/28 13:04:59;;;;;;;4.47;0.90;;;11.70;99.90;;;;;;5018374;28;20050;-62
2022/11/28 13:07:50;;;;;;;3.95;0.80;;;11.80;99.90;;;;;;5028348;28;20030;-60
2022/11/28 13:10:35;;;;;;;2.15;0.75;;;12.00;99.90;;;;;;5029626;28;20033;-62
2022/11/28 13:13:09;;;;;;;3.45;1.00;;;12.30;99.90;;;;;;5023839;28;20017;-62
2022/11/28 13:16:12;;;;;;;6.78;0.85;;;12.50;99.90;;;;;;5025498;28;20087;-62
2022/11/28 13:18:57;;;;;;;5.95;0.70;;;12.60;99.90;;;;;;5021572;28;20100;-62
2022/11/28 13:21:58;;;;;;;2.63;0.60;;;12.60;99.90;;;;;;5025975;28;20029;-63